Aérodrome :
LOGIN :

S'inscrire | Disclaimer

   EN    FR    IT 

 










Légende :    VFR   VFR Marginal   IFR   IFR Intensif   IFR Très Intensif
Visi : 
Plafond : 
>= 8 km
>= 3000ft
5 à 8 km
1000 à 3000 ft
1500m à 5 km
500 à 1000 ft
800 à 1500m
200 à 500 ft
< 800m
< 200 ft
Symboles :   Orages  Brouillard  Fortes neiges  Fortes précipitations  Vent > 20 kt
SIGMETs :   Divers  Orages  Givrage  Turbulence  Onde Orograph.  Cendres Volcan.






- Altitude de l'aérodrome : 65 ft
- Code IATA : PIK


EGPK - Glasgow Prestwick

DERNIER METAR :
  • 211420Z 13003KT 9999 SCT028 10/04 Q1023

METARs EXPIRÉS :
  • 211350Z 13002KT 9999 SCT028 10/04 Q1023
  • 211320Z 00000KT 9999 SCT030 10/04 Q1024
  • 211250Z 13002KT 9999 SCT030 09/04 Q1024
  • 211220Z 00000KT 9999 SCT030 09/04 Q1024
  • 211150Z 00000KT 9999 SCT030 09/04 Q1024

TAF TAF EGPK
Valide du 21 à 12h jusqu'au 22 à 12h UTC


211058Z 2112/2212 VRB03KT 9999 SCT030
BECMG 2121/2124 23010KT
PROB30
TEMPO 2200/2212 24015G25KT



MET'MAP, la Météo Aéronautique d'un coup d'oeil ! - Copyright ORBIFLY Décembre 2007 - Disclaimer

ORBIFLY MET'MAP TEAM :

Programmation & Développement : Alexandra Zaïnal
Conception & Développement : Baudouin d'Aumeries
Co-Programmation & Développement : Marc-Olivier Méhu
Soutien technique & logistique : Manuel Goepfert

Contact : metmap@orbifly.com




SOURCES & CREDITS :

   NOAA